Ashcamp, Kentucky
Current Conditions -  °F | °C
As of 9:15 AM on Thursday 18 Dec 2014 (Local Time) from KLNP Reporting Station
Overcast Overcast  
Wind Chill: -1°   Ceiling: 9500
Heat Index: -1°   Visibility: 10mi
Dew Point: -3°   Wind: 3mph
Humidity: 86%   Direction: 240°WSW
Pressure: 30.17"   Gusts: NA
Location:  37.27°N, 82.43°W
Report Text: KLNP 181415Z AUTO 24003KT 10SM OVC095 M01/M03 A3017 RMK AO2
Loading
Personal Weather Stations






























Interactive Weather Map New forecast layout! Learn more

10-Day Weather Forecast

Advertisements
Track Severe Weather on mobile